sensor_id;sensor_type;location;lat;lon;timestamp;temperature;humidity
56298;DHT22;42208;6.376;-10.782;2023-02-07T00:01:58;26.50;99.90
56298;DHT22;42208;6.376;-10.782;2023-02-07T00:04:27;26.50;99.90
56298;DHT22;42208;6.376;-10.782;2023-02-07T00:06:55;26.50;99.90
56298;DHT22;42208;6.376;-10.782;2023-02-07T00:09:24;26.50;99.90
56298;DHT22;42208;6.376;-10.782;2023-02-07T00:11:52;26.50;99.90
56298;DHT22;42208;6.376;-10.782;2023-02-07T00:14:22;26.50;99.90
56298;DHT22;42208;6.376;-10.782;2023-02-07T00:16:50;26.50;99.90
56298;DHT22;42208;6.376;-10.782;2023-02-07T00:19:19;26.50;99.90
56298;DHT22;42208;6.376;-10.782;2023-02-07T00:21:47;26.50;99.90
56298;DHT22;42208;6.376;-10.782;2023-02-07T00:24:16;26.50;99.90
56298;DHT22;42208;6.376;-10.782;2023-02-07T00:26:44;26.40;99.90
56298;DHT22;42208;6.376;-10.782;2023-02-07T00:29:13;26.40;99.90
56298;DHT22;42208;6.376;-10.782;2023-02-07T00:31:41;26.40;99.90
56298;DHT22;42208;6.376;-10.782;2023-02-07T00:34:10;26.40;99.90
56298;DHT22;42208;6.376;-10.782;2023-02-07T00:36:39;26.40;99.90
56298;DHT22;42208;6.376;-10.782;2023-02-07T00:39:11;26.40;99.90
56298;DHT22;42208;6.376;-10.782;2023-02-07T00:41:40;26.40;99.90
56298;DHT22;42208;6.376;-10.782;2023-02-07T00:44:11;26.40;99.90
56298;DHT22;42208;6.376;-10.782;2023-02-07T00:46:40;26.40;99.90
56298;DHT22;42208;6.376;-10.782;2023-02-07T00:49:09;26.40;99.90
56298;DHT22;42208;6.376;-10.782;2023-02-07T00:51:38;26.40;99.90
56298;DHT22;42208;6.376;-10.782;2023-02-07T00:54:06;26.40;99.90
56298;DHT22;42208;6.376;-10.782;2023-02-07T00:56:35;26.40;99.90
56298;DHT22;42208;6.376;-10.782;2023-02-07T00:59:03;26.40;99.90
56298;DHT22;42208;6.376;-10.782;2023-02-07T01:01:31;26.40;99.90
56298;DHT22;42208;6.376;-10.782;2023-02-07T01:04:00;26.40;99.90
56298;DHT22;42208;6.376;-10.782;2023-02-07T01:06:29;26.30;99.90
56298;DHT22;42208;6.376;-10.782;2023-02-07T01:08:58;26.30;99.90
56298;DHT22;42208;6.376;-10.782;2023-02-07T01:11:31;26.30;99.90
56298;DHT22;42208;6.376;-10.782;2023-02-07T01:14:00;26.30;99.90
56298;DHT22;42208;6.376;-10.782;2023-02-07T01:16:32;26.30;99.90
56298;DHT22;42208;6.376;-10.782;2023-02-07T01:19:05;26.30;99.90
56298;DHT22;42208;6.376;-10.782;2023-02-07T01:21:34;26.30;99.90
56298;DHT22;42208;6.376;-10.782;2023-02-07T01:24:04;26.30;99.90
56298;DHT22;42208;6.376;-10.782;2023-02-07T01:26:34;26.30;99.90
56298;DHT22;42208;6.376;-10.782;2023-02-07T01:29:03;26.30;99.90
56298;DHT22;42208;6.376;-10.782;2023-02-07T01:31:31;26.30;99.90
56298;DHT22;42208;6.376;-10.782;2023-02-07T01:34:01;26.30;99.90
56298;DHT22;42208;6.376;-10.782;2023-02-07T01:36:32;26.30;99.90
56298;DHT22;42208;6.376;-10.782;2023-02-07T01:39:00;26.30;99.90
56298;DHT22;42208;6.376;-10.782;2023-02-07T01:41:29;26.30;99.90
56298;DHT22;42208;6.376;-10.782;2023-02-07T01:46:50;26.30;99.90
56298;DHT22;42208;6.376;-10.782;2023-02-07T01:49:29;26.30;99.90
56298;DHT22;42208;6.376;-10.782;2023-02-07T01:52:04;26.20;99.90
56298;DHT22;42208;6.376;-10.782;2023-02-07T01:54:34;26.20;99.90
56298;DHT22;42208;6.376;-10.782;2023-02-07T01:57:06;26.20;99.90
56298;DHT22;42208;6.376;-10.782;2023-02-07T01:59:36;26.20;99.90
56298;DHT22;42208;6.376;-10.782;2023-02-07T02:02:05;26.20;99.90
56298;DHT22;42208;6.376;-10.782;2023-02-07T02:04:33;26.20;99.90
56298;DHT22;42208;6.376;-10.782;2023-02-07T02:07:01;26.20;99.90
56298;DHT22;42208;6.376;-10.782;2023-02-07T02:09:31;26.20;99.90
56298;DHT22;42208;6.376;-10.782;2023-02-07T02:18:17;26.30;99.90
56298;DHT22;42208;6.376;-10.782;2023-02-07T02:33:05;26.20;99.90
56298;DHT22;42208;6.376;-10.782;2023-02-07T02:39:11;26.20;99.90
56298;DHT22;42208;6.376;-10.782;2023-02-07T02:41:48;26.20;99.90
56298;DHT22;42208;6.376;-10.782;2023-02-07T02:44:29;26.20;99.90
56298;DHT22;42208;6.376;-10.782;2023-02-07T02:47:01;26.20;99.90
56298;DHT22;42208;6.376;-10.782;2023-02-07T02:49:35;26.10;99.90
56298;DHT22;42208;6.376;-10.782;2023-02-07T02:52:04;26.10;99.90
56298;DHT22;42208;6.376;-10.782;2023-02-07T02:54:35;26.00;99.90
56298;DHT22;42208;6.376;-10.782;2023-02-07T02:57:26;26.00;99.90
56298;DHT22;42208;6.376;-10.782;2023-02-07T03:11:58;25.80;99.90
56298;DHT22;42208;6.376;-10.782;2023-02-07T03:14:43;25.80;99.90
56298;DHT22;42208;6.376;-10.782;2023-02-07T03:17:21;25.80;99.90
56298;DHT22;42208;6.376;-10.782;2023-02-07T03:19:53;25.80;99.90
56298;DHT22;42208;6.376;-10.782;2023-02-07T03:22:23;25.70;99.90
56298;DHT22;42208;6.376;-10.782;2023-02-07T03:24:56;25.70;99.90
56298;DHT22;42208;6.376;-10.782;2023-02-07T03:27:29;25.70;99.90
56298;DHT22;42208;6.376;-10.782;2023-02-07T03:29:59;25.70;99.90
56298;DHT22;42208;6.376;-10.782;2023-02-07T03:32:33;25.70;99.90
56298;DHT22;42208;6.376;-10.782;2023-02-07T03:35:13;25.60;99.90
56298;DHT22;42208;6.376;-10.782;2023-02-07T03:37:51;25.60;99.90
56298;DHT22;42208;6.376;-10.782;2023-02-07T03:40:20;25.60;99.90
56298;DHT22;42208;6.376;-10.782;2023-02-07T03:42:52;25.60;99.90
56298;DHT22;42208;6.376;-10.782;2023-02-07T03:45:22;25.50;99.90
56298;DHT22;42208;6.376;-10.782;2023-02-07T03:47:51;25.50;99.90
56298;DHT22;42208;6.376;-10.782;2023-02-07T03:50:19;25.50;99.90
56298;DHT22;42208;6.376;-10.782;2023-02-07T03:52:47;25.50;99.90
56298;DHT22;42208;6.376;-10.782;2023-02-07T03:55:16;25.40;99.90
56298;DHT22;42208;6.376;-10.782;2023-02-07T03:57:44;25.40;99.90
56298;DHT22;42208;6.376;-10.782;2023-02-07T04:00:13;25.40;99.90
56298;DHT22;42208;6.376;-10.782;2023-02-07T04:02:41;25.40;99.90
56298;DHT22;42208;6.376;-10.782;2023-02-07T04:05:10;25.40;99.90
56298;DHT22;42208;6.376;-10.782;2023-02-07T04:07:38;25.40;99.90
56298;DHT22;42208;6.376;-10.782;2023-02-07T04:10:08;25.40;99.90
56298;DHT22;42208;6.376;-10.782;2023-02-07T04:12:37;25.40;99.90
56298;DHT22;42208;6.376;-10.782;2023-02-07T04:15:07;25.30;99.90
56298;DHT22;42208;6.376;-10.782;2023-02-07T04:17:35;25.30;99.90
56298;DHT22;42208;6.376;-10.782;2023-02-07T04:20:05;25.30;99.90
56298;DHT22;42208;6.376;-10.782;2023-02-07T04:22:33;25.30;99.90
56298;DHT22;42208;6.376;-10.782;2023-02-07T04:25:01;25.30;99.90
56298;DHT22;42208;6.376;-10.782;2023-02-07T04:27:30;25.30;99.90
56298;DHT22;42208;6.376;-10.782;2023-02-07T04:29:58;25.30;99.90
56298;DHT22;42208;6.376;-10.782;2023-02-07T04:32:26;25.30;99.90
56298;DHT22;42208;6.376;-10.782;2023-02-07T04:34:54;25.30;99.90
56298;DHT22;42208;6.376;-10.782;2023-02-07T04:37:23;25.30;99.90
56298;DHT22;42208;6.376;-10.782;2023-02-07T04:39:51;25.30;99.90
56298;DHT22;42208;6.376;-10.782;2023-02-07T04:42:19;25.30;99.90
56298;DHT22;42208;6.376;-10.782;2023-02-07T04:44:47;25.30;99.90
56298;DHT22;42208;6.376;-10.782;2023-02-07T04:47:16;25.30;99.90
56298;DHT22;42208;6.376;-10.782;2023-02-07T04:49:44;25.30;99.90
56298;DHT22;42208;6.376;-10.782;2023-02-07T04:52:13;25.30;99.90
56298;DHT22;42208;6.376;-10.782;2023-02-07T04:54:42;25.30;99.90
56298;DHT22;42208;6.376;-10.782;2023-02-07T04:57:10;25.30;99.90
56298;DHT22;42208;6.376;-10.782;2023-02-07T04:59:38;25.30;99.90
56298;DHT22;42208;6.376;-10.782;2023-02-07T05:02:06;25.30;99.90
56298;DHT22;42208;6.376;-10.782;2023-02-07T05:04:35;25.20;99.90
56298;DHT22;42208;6.376;-10.782;2023-02-07T05:07:03;25.20;99.90
56298;DHT22;42208;6.376;-10.782;2023-02-07T05:09:31;25.20;99.90
56298;DHT22;42208;6.376;-10.782;2023-02-07T05:11:59;25.20;99.90
56298;DHT22;42208;6.376;-10.782;2023-02-07T05:14:28;25.10;99.90
56298;DHT22;42208;6.376;-10.782;2023-02-07T05:16:56;25.10;99.90
56298;DHT22;42208;6.376;-10.782;2023-02-07T05:19:24;25.10;99.90
56298;DHT22;42208;6.376;-10.782;2023-02-07T05:21:52;25.10;99.90
56298;DHT22;42208;6.376;-10.782;2023-02-07T05:24:21;25.10;99.90
56298;DHT22;42208;6.376;-10.782;2023-02-07T05:26:49;25.10;99.90
56298;DHT22;42208;6.376;-10.782;2023-02-07T05:29:17;25.00;99.90
56298;DHT22;42208;6.376;-10.782;2023-02-07T05:31:45;25.00;99.90
56298;DHT22;42208;6.376;-10.782;2023-02-07T05:34:14;25.00;99.90
56298;DHT22;42208;6.376;-10.782;2023-02-07T05:36:42;25.00;99.90
56298;DHT22;42208;6.376;-10.782;2023-02-07T05:39:10;25.00;99.90
56298;DHT22;42208;6.376;-10.782;2023-02-07T05:41:39;25.10;99.90
56298;DHT22;42208;6.376;-10.782;2023-02-07T05:44:07;25.10;99.90
56298;DHT22;42208;6.376;-10.782;2023-02-07T05:46:35;25.10;99.90
56298;DHT22;42208;6.376;-10.782;2023-02-07T05:49:04;25.10;99.90
56298;DHT22;42208;6.376;-10.782;2023-02-07T05:51:32;25.10;99.90
56298;DHT22;42208;6.376;-10.782;2023-02-07T05:54:00;25.00;99.90
56298;DHT22;42208;6.376;-10.782;2023-02-07T05:56:28;25.10;99.90
56298;DHT22;42208;6.376;-10.782;2023-02-07T05:58:57;25.10;99.90
56298;DHT22;42208;6.376;-10.782;2023-02-07T06:01:25;25.00;99.90
56298;DHT22;42208;6.376;-10.782;2023-02-07T06:03:54;25.00;99.90
56298;DHT22;42208;6.376;-10.782;2023-02-07T06:06:22;24.90;99.90
56298;DHT22;42208;6.376;-10.782;2023-02-07T06:08:50;25.00;99.90
56298;DHT22;42208;6.376;-10.782;2023-02-07T06:11:18;24.90;99.90
56298;DHT22;42208;6.376;-10.782;2023-02-07T06:13:47;24.90;99.90
56298;DHT22;42208;6.376;-10.782;2023-02-07T06:16:19;24.80;99.90
56298;DHT22;42208;6.376;-10.782;2023-02-07T06:18:47;24.90;99.90
56298;DHT22;42208;6.376;-10.782;2023-02-07T06:21:16;24.90;99.90
56298;DHT22;42208;6.376;-10.782;2023-02-07T06:23:45;24.90;99.90
56298;DHT22;42208;6.376;-10.782;2023-02-07T06:26:13;24.80;99.90
56298;DHT22;42208;6.376;-10.782;2023-02-07T06:28:44;24.80;99.90
56298;DHT22;42208;6.376;-10.782;2023-02-07T06:31:12;24.80;99.90
56298;DHT22;42208;6.376;-10.782;2023-02-07T06:33:41;24.80;99.90
56298;DHT22;42208;6.376;-10.782;2023-02-07T06:36:09;24.80;99.90
56298;DHT22;42208;6.376;-10.782;2023-02-07T06:38:38;24.80;99.90
56298;DHT22;42208;6.376;-10.782;2023-02-07T06:41:06;24.90;99.90
56298;DHT22;42208;6.376;-10.782;2023-02-07T18:23:23;28.30;99.90
56298;DHT22;42208;6.376;-10.782;2023-02-07T18:25:52;28.20;99.90
56298;DHT22;42208;6.376;-10.782;2023-02-07T18:28:20;28.10;99.90
56298;DHT22;42208;6.376;-10.782;2023-02-07T18:30:49;27.90;99.90
56298;DHT22;42208;6.376;-10.782;2023-02-07T18:33:18;27.90;99.90
56298;DHT22;42208;6.376;-10.782;2023-02-07T18:38:29;27.80;99.90
56298;DHT22;42208;6.376;-10.782;2023-02-07T18:40:57;27.60;99.90
56298;DHT22;42208;6.376;-10.782;2023-02-07T18:43:25;27.50;99.90
56298;DHT22;42208;6.376;-10.782;2023-02-07T18:45:54;27.50;99.90
56298;DHT22;42208;6.376;-10.782;2023-02-07T18:48:22;27.40;99.90
56298;DHT22;42208;6.376;-10.782;2023-02-07T18:50:51;27.40;99.90
56298;DHT22;42208;6.376;-10.782;2023-02-07T18:53:19;27.40;99.90
56298;DHT22;42208;6.376;-10.782;2023-02-07T18:55:47;27.40;99.90
56298;DHT22;42208;6.376;-10.782;2023-02-07T18:58:16;27.30;99.90
56298;DHT22;42208;6.376;-10.782;2023-02-07T19:00:44;27.30;99.90
56298;DHT22;42208;6.376;-10.782;2023-02-07T19:03:13;27.20;99.90
56298;DHT22;42208;6.376;-10.782;2023-02-07T19:05:41;27.20;99.90
56298;DHT22;42208;6.376;-10.782;2023-02-07T19:08:10;27.10;99.90
56298;DHT22;42208;6.376;-10.782;2023-02-07T19:10:38;27.10;99.90
56298;DHT22;42208;6.376;-10.782;2023-02-07T19:13:07;27.10;99.90
56298;DHT22;42208;6.376;-10.782;2023-02-07T19:15:37;27.00;99.90
56298;DHT22;42208;6.376;-10.782;2023-02-07T19:18:06;27.10;99.90
56298;DHT22;42208;6.376;-10.782;2023-02-07T19:20:34;27.00;99.90
56298;DHT22;42208;6.376;-10.782;2023-02-07T19:23:02;26.90;99.90
56298;DHT22;42208;6.376;-10.782;2023-02-07T19:25:31;26.90;99.90
56298;DHT22;42208;6.376;-10.782;2023-02-07T19:27:59;26.90;99.90
56298;DHT22;42208;6.376;-10.782;2023-02-07T19:30:27;26.90;99.90
56298;DHT22;42208;6.376;-10.782;2023-02-07T19:32:56;26.90;99.90
56298;DHT22;42208;6.376;-10.782;2023-02-07T19:35:24;26.90;99.90
56298;DHT22;42208;6.376;-10.782;2023-02-07T19:37:52;26.90;99.90
56298;DHT22;42208;6.376;-10.782;2023-02-07T19:40:20;26.90;99.90
56298;DHT22;42208;6.376;-10.782;2023-02-07T19:42:48;26.80;99.90
56298;DHT22;42208;6.376;-10.782;2023-02-07T19:45:17;26.80;99.90
56298;DHT22;42208;6.376;-10.782;2023-02-07T19:47:45;26.70;99.90
56298;DHT22;42208;6.376;-10.782;2023-02-07T19:50:13;26.70;99.90
56298;DHT22;42208;6.376;-10.782;2023-02-07T19:52:42;26.70;99.90
56298;DHT22;42208;6.376;-10.782;2023-02-07T19:55:10;26.70;99.90
56298;DHT22;42208;6.376;-10.782;2023-02-07T19:57:38;26.80;99.90
56298;DHT22;42208;6.376;-10.782;2023-02-07T20:00:07;26.70;99.90
56298;DHT22;42208;6.376;-10.782;2023-02-07T20:02:36;26.70;99.90
56298;DHT22;42208;6.376;-10.782;2023-02-07T20:05:04;26.80;99.90
56298;DHT22;42208;6.376;-10.782;2023-02-07T20:07:33;26.70;99.90
56298;DHT22;42208;6.376;-10.782;2023-02-07T20:10:01;26.70;99.90
56298;DHT22;42208;6.376;-10.782;2023-02-07T20:12:29;26.70;99.90
56298;DHT22;42208;6.376;-10.782;2023-02-07T20:14:58;26.70;99.90
56298;DHT22;42208;6.376;-10.782;2023-02-07T20:17:26;26.70;99.90
56298;DHT22;42208;6.376;-10.782;2023-02-07T20:19:54;26.70;99.90
56298;DHT22;42208;6.376;-10.782;2023-02-07T20:22:22;26.70;99.90
56298;DHT22;42208;6.376;-10.782;2023-02-07T20:24:51;26.70;99.90
56298;DHT22;42208;6.376;-10.782;2023-02-07T20:27:19;26.70;99.90
56298;DHT22;42208;6.376;-10.782;2023-02-07T20:29:51;26.70;99.90
56298;DHT22;42208;6.376;-10.782;2023-02-07T20:32:20;26.70;99.90
56298;DHT22;42208;6.376;-10.782;2023-02-07T20:34:48;26.80;99.90
56298;DHT22;42208;6.376;-10.782;2023-02-07T20:37:16;26.70;99.90
56298;DHT22;42208;6.376;-10.782;2023-02-07T20:39:44;26.80;99.90
56298;DHT22;42208;6.376;-10.782;2023-02-07T20:42:13;26.80;99.90
56298;DHT22;42208;6.376;-10.782;2023-02-07T20:44:41;26.70;99.90
56298;DHT22;42208;6.376;-10.782;2023-02-07T20:47:10;26.80;99.90
56298;DHT22;42208;6.376;-10.782;2023-02-07T20:49:38;26.70;99.90
56298;DHT22;42208;6.376;-10.782;2023-02-07T20:52:06;26.70;99.90
56298;DHT22;42208;6.376;-10.782;2023-02-07T20:54:35;26.60;99.90
56298;DHT22;42208;6.376;-10.782;2023-02-07T20:57:03;26.70;99.90
56298;DHT22;42208;6.376;-10.782;2023-02-07T20:59:32;26.70;99.90
56298;DHT22;42208;6.376;-10.782;2023-02-07T21:02:01;26.70;99.90
56298;DHT22;42208;6.376;-10.782;2023-02-07T21:04:29;26.70;99.90
56298;DHT22;42208;6.376;-10.782;2023-02-07T21:06:57;26.70;99.90
56298;DHT22;42208;6.376;-10.782;2023-02-07T21:09:26;26.70;99.90
56298;DHT22;42208;6.376;-10.782;2023-02-07T21:11:55;26.60;99.90
56298;DHT22;42208;6.376;-10.782;2023-02-07T21:14:27;26.60;99.90
56298;DHT22;42208;6.376;-10.782;2023-02-07T21:16:58;26.70;99.90
56298;DHT22;42208;6.376;-10.782;2023-02-07T21:19:27;26.70;99.90
56298;DHT22;42208;6.376;-10.782;2023-02-07T21:21:55;26.70;99.90
56298;DHT22;42208;6.376;-10.782;2023-02-07T21:24:24;26.70;99.90
56298;DHT22;42208;6.376;-10.782;2023-02-07T21:26:53;26.70;99.90
56298;DHT22;42208;6.376;-10.782;2023-02-07T21:29:23;26.70;99.90
56298;DHT22;42208;6.376;-10.782;2023-02-07T21:31:51;26.70;99.90
56298;DHT22;42208;6.376;-10.782;2023-02-07T21:34:20;26.60;99.90
56298;DHT22;42208;6.376;-10.782;2023-02-07T21:36:49;26.60;99.90
56298;DHT22;42208;6.376;-10.782;2023-02-07T21:39:17;26.60;99.90
56298;DHT22;42208;6.376;-10.782;2023-02-07T21:41:46;26.60;99.90
56298;DHT22;42208;6.376;-10.782;2023-02-07T21:44:16;26.60;99.90
56298;DHT22;42208;6.376;-10.782;2023-02-07T21:46:44;26.60;99.90
56298;DHT22;42208;6.376;-10.782;2023-02-07T21:49:14;26.60;99.90
56298;DHT22;42208;6.376;-10.782;2023-02-07T21:51:45;26.60;99.90
56298;DHT22;42208;6.376;-10.782;2023-02-07T21:54:14;26.60;99.90
56298;DHT22;42208;6.376;-10.782;2023-02-07T21:56:43;26.60;99.90
56298;DHT22;42208;6.376;-10.782;2023-02-07T21:59:14;26.60;99.90
56298;DHT22;42208;6.376;-10.782;2023-02-07T22:01:45;26.60;99.90
56298;DHT22;42208;6.376;-10.782;2023-02-07T22:04:14;26.60;99.90
56298;DHT22;42208;6.376;-10.782;2023-02-07T22:06:43;26.60;99.90
56298;DHT22;42208;6.376;-10.782;2023-02-07T22:09:14;26.60;99.90
56298;DHT22;42208;6.376;-10.782;2023-02-07T22:11:42;26.60;99.90
56298;DHT22;42208;6.376;-10.782;2023-02-07T22:14:12;26.60;99.90
56298;DHT22;42208;6.376;-10.782;2023-02-07T22:16:41;26.60;99.90
56298;DHT22;42208;6.376;-10.782;2023-02-07T22:19:11;26.60;99.90
56298;DHT22;42208;6.376;-10.782;2023-02-07T22:21:40;26.60;99.90
56298;DHT22;42208;6.376;-10.782;2023-02-07T22:24:11;26.60;99.90
56298;DHT22;42208;6.376;-10.782;2023-02-07T22:26:40;26.60;99.90
56298;DHT22;42208;6.376;-10.782;2023-02-07T22:29:12;26.60;99.90
56298;DHT22;42208;6.376;-10.782;2023-02-07T22:31:41;26.60;99.90
56298;DHT22;42208;6.376;-10.782;2023-02-07T22:34:14;26.50;99.90
56298;DHT22;42208;6.376;-10.782;2023-02-07T22:36:43;26.50;99.90
56298;DHT22;42208;6.376;-10.782;2023-02-07T22:39:14;26.50;99.90
56298;DHT22;42208;6.376;-10.782;2023-02-07T22:41:44;26.50;99.90
56298;DHT22;42208;6.376;-10.782;2023-02-07T22:44:13;26.50;99.90
56298;DHT22;42208;6.376;-10.782;2023-02-07T22:46:41;26.50;99.90
56298;DHT22;42208;6.376;-10.782;2023-02-07T22:49:12;26.50;99.90
56298;DHT22;42208;6.376;-10.782;2023-02-07T22:51:41;26.40;99.90
56298;DHT22;42208;6.376;-10.782;2023-02-07T22:54:14;26.40;99.90
56298;DHT22;42208;6.376;-10.782;2023-02-07T22:56:43;26.40;99.90
56298;DHT22;42208;6.376;-10.782;2023-02-07T22:59:17;26.40;99.90
56298;DHT22;42208;6.376;-10.782;2023-02-07T23:01:45;26.40;99.90
56298;DHT22;42208;6.376;-10.782;2023-02-07T23:04:15;26.40;99.90
56298;DHT22;42208;6.376;-10.782;2023-02-07T23:06:45;26.40;99.90
56298;DHT22;42208;6.376;-10.782;2023-02-07T23:09:16;26.40;99.90
56298;DHT22;42208;6.376;-10.782;2023-02-07T23:11:45;26.40;99.90
56298;DHT22;42208;6.376;-10.782;2023-02-07T23:14:13;26.40;99.90
56298;DHT22;42208;6.376;-10.782;2023-02-07T23:16:42;26.40;99.90
56298;DHT22;42208;6.376;-10.782;2023-02-07T23:19:13;26.40;99.90
56298;DHT22;42208;6.376;-10.782;2023-02-07T23:21:42;26.40;99.90
56298;DHT22;42208;6.376;-10.782;2023-02-07T23:24:11;26.40;99.90
56298;DHT22;42208;6.376;-10.782;2023-02-07T23:26:39;26.40;99.90
56298;DHT22;42208;6.376;-10.782;2023-02-07T23:29:09;26.40;99.90
56298;DHT22;42208;6.376;-10.782;2023-02-07T23:31:38;26.40;99.90
56298;DHT22;42208;6.376;-10.782;2023-02-07T23:34:06;26.40;99.90
56298;DHT22;42208;6.376;-10.782;2023-02-07T23:36:36;26.40;99.90
56298;DHT22;42208;6.376;-10.782;2023-02-07T23:39:05;26.40;99.90
56298;DHT22;42208;6.376;-10.782;2023-02-07T23:41:34;26.30;99.90
56298;DHT22;42208;6.376;-10.782;2023-02-07T23:44:03;26.40;99.90
56298;DHT22;42208;6.376;-10.782;2023-02-07T23:46:31;26.40;99.90
56298;DHT22;42208;6.376;-10.782;2023-02-07T23:49:01;26.40;99.90
56298;DHT22;42208;6.376;-10.782;2023-02-07T23:51:31;26.40;99.90
56298;DHT22;42208;6.376;-10.782;2023-02-07T23:54:03;26.40;99.90
56298;DHT22;42208;6.376;-10.782;2023-02-07T23:56:33;26.40;99.90
56298;DHT22;42208;6.376;-10.782;2023-02-07T23:59:03;26.40;99.90
